Detalii statie AGRIND TASNAD [0000197A]

Toti senzorii

Date Temperatura solului [C]Precipitatii [mm]Voltaj baterie [mV]Leaf Wetness [Min]HC Air temperature [C]HC Relative humidity [%]Punctul de roua [C]
medieminmaxsumaultimatimpmedieminmaxmediemediemin
2020-06-02 08:00:00 13.2 13.2 13.2 0 6922 10.08 10.07 10.09 83.48 7.2 7.1
2020-06-02 08:10:00 13 13 13.1 0 6874 10.38 10.37 10.4 81.33 7.1 7
2020-06-02 08:20:00 13 13 13.1 0 6904 11.45 11.38 11.52 78.78 7.7 7.4
2020-06-02 08:30:00 13 13 13.1 0 6914 11.25 11.16 11.35 77.3 7.3 7.2
2020-06-02 08:40:00 13.1 13.1 13.1 0 6922 11.52 11.48 11.57 78.04 7.6 7.5
2020-06-02 08:50:00 13 13 13.1 0 6942 12.72 12.4 13.04 74.35 8.2 7.9
2020-06-02 09:00:00 13.1 13.1 13.1 0 6962 12.48 12.46 12.5 75.87 8.1 7.8
2020-06-02 09:10:00 13.2 13.2 13.3 0 6904 13.13 12.83 13.43 73.83 8.5 8.3
2020-06-02 09:20:00 13.2 13.2 13.2 0 6942 13.34 13.14 13.55 69.2 7.6 7.3
2020-06-02 09:30:00 13.3 13.3 13.3 0 6962 14.08 13.9 14.27 65.49 7.6 7.5
2020-06-02 09:40:00 13.3 13.3 13.3 0 6972 14.53 14.53 14.54 59.88 6.7 6.1
2020-06-02 09:50:00 13.3 13.3 13.4 0 6992 14.9 14.47 15.34 57.7 6.5 6.5
2020-06-02 10:00:00 13.5 13.5 13.6 0 7000 15.12 15.12 15.13 52.95 5.3 4.8
2020-06-02 10:10:00 13.6 13.6 13.6 0 6932 15.12 14.78 15.46 51.35 5 4.7
2020-06-02 10:20:00 13.7 13.7 13.7 0 6972 15.36 14.93 15.79 51.16 5 5
2020-06-02 10:30:00 13.8 13.8 13.8 0 7000 16.03 15.95 16.11 46.55 4.4 4.3
2020-06-02 10:40:00 13.9 13.8 14 0 7050 16.26 15.96 16.56 45.07 4.1 3.7
2020-06-02 10:50:00 14 14 14.1 0 7098 16.03 15.94 16.12 43.75 3.4 3.4
2020-06-02 11:00:00 14.1 14.1 14.2 0 7148 16.43 16.42 16.45 43.81 3.9 3.8
2020-06-02 11:10:00 14.3 14.3 14.3 0 7166 16.7 16.68 16.73 41.17 3.1 3
2020-06-02 11:20:00 14.5 14.4 14.6 0 7206 16.72 16.55 16.9 41.05 3.2 3.2
2020-06-02 11:30:00 14.6 14.5 14.7 0 7246 17.2 17.19 17.22 40.46 3.4 3.4
2020-06-02 11:40:00 14.7 14.7 14.8 0 7254 16.71 16.38 17.05 40.15 3 2.6
2020-06-02 11:50:00 14.9 14.8 15 0 7246 16.46 16.46 16.47 40.5 2.8 2.8
2020-06-02 12:00:00 15.1 15.1 15.1 0 7274 16.68 16.35 17.01 40.79 3.2 3
2020-06-02 12:10:00 15.1 15.1 15.2 0 7264 17.5 17.1 17.9 37.33 2.4 1.8
2020-06-02 12:20:00 15.3 15.3 15.3 0 7264 16.99 16.48 17.51 36.46 1.8 0.9
2020-06-02 12:30:00 15.4 15.4 15.4 0 7246 16.43 16.34 16.52 38.68 2 1.6
2020-06-02 12:40:00 15.4 15.4 15.4 0 7264 16.63 16.58 16.69 39.48 2.6 2.2
2020-06-02 12:50:00 15.6 15.6 15.6 0 7216 17.04 16.92 17.17 38.83 2.6 2.3
2020-06-02 13:00:00 15.7 15.6 15.8 0 7264 17.98 17.49 18.48 35.19 2 1.4
2020-06-02 13:10:00 15.8 15.8 15.9 0 7264 17.82 17.79 17.85 36.18 2.3 2.2
2020-06-02 13:20:00 15.8 15.8 15.9 0 7264 18.05 17.73 18.37 36.69 2.9 2.8
2020-06-02 13:30:00 16 15.9 16.1 0 7226 17.37 17.06 17.68 35.03 1.5 1.2
2020-06-02 13:40:00 16.1 16.1 16.1 0 7264 18.16 17.3 19.02 35.36 2.2 1.7
2020-06-02 13:50:00 16.2 16.2 16.3 0 7246 17.88 17.82 17.94 36.67 2.7 2.6
2020-06-02 14:00:00 16.3 16.2 16.4 0 7264 18.01 17.87 18.15 35.71 2.4 2.4
2020-06-02 14:10:00 16.3 16.3 16.3 0 7274 17.49 17.32 17.67 36.37 2.2 2.1
2020-06-02 14:20:00 16.6 16.5 16.7 0 7264 17.95 17.8 18.1 36.5 2.6 2.5
2020-06-02 14:30:00 16.6 16.6 16.7 0 7274 17.71 17.51 17.92 36.82 2.4 2.3
2020-06-02 14:40:00 16.6 16.5 16.7 0 7254 18.14 17.82 18.46 37.01 3 2.9
2020-06-02 14:50:00 16.7 16.7 16.8 0 7254 17.69 17.63 17.76 37.17 2.8 2.8
2020-06-02 15:00:00 16.7 16.7 16.7 0 7264 18.01 17.85 18.17 35.32 2.1 2
2020-06-02 15:10:00 16.7 16.7 16.8 0 7274 18.18 17.87 18.5 36.8 3 2.8
2020-06-02 15:20:00 16.9 16.9 16.9 0 7264 18.69 18.6 18.79 33.85 2.2 2.1
2020-06-02 15:30:00 16.9 16.8 17 0 7264 19.01 18.68 19.34 34.37 2.5 2
2020-06-02 15:40:00 16.9 16.8 17 0 7264 19.24 19.22 19.27 35.24 3.4 3.4
2020-06-02 15:50:00 17 17 17.1 0 7264 18.83 18.58 19.09 36.15 3.4 3.2